Weather reports worldwide

Advertisment
Kinbrace, United Kingdom (99016): temperature & dewpoint: 19.01.2017 01:00:00 - 25.01.2017 01:00:00 (GMT)Kinbrace, United Kingdom (99016): wind speed & gusts: 19.01.2017 01:00:00 - 25.01.2017 01:00:00 (GMT)Kinbrace, United Kingdom (99016): wind direction: 19.01.2017 01:00:00 - 25.01.2017 01:00:00 (GMT)Kinbrace, United Kingdom (99016): precipitation: 19.01.2017 01:00:00 - 25.01.2017 01:00:00 (GMT)
Date & Time tt [°C] td [°C] ff [km/h] ff [kn] fx [km/h] fx [kn] dd rr [mm]
25.01.2017 01:00:00 8,7 5,5 28 15 - - SSE -
25.01.2017 00:00:00 8,3 4,5 21 11 - - SSE 0,0
24.01.2017 23:00:00 8,4 4,6 29 16 - - SSE 0,0
24.01.2017 22:00:00 7,7 4,1 21 11 46 25 ESE 0,0
24.01.2017 21:00:00 8,4 4,1 31 17 50 27 ESE 0,0
24.01.2017 20:00:00 8,5 3,2 21 11 - - SE 0,0
24.01.2017 19:00:00 8,3 2,9 16 9 - - SSE 0,0
24.01.2017 18:00:00 8,6 3,9 13 7 - - ESE 0,0
24.01.2017 17:00:00 7,9 4,1 15 8 - - SE 0,0
24.01.2017 16:00:00 8,1 4,8 28 15 - - SSE 0,0
24.01.2017 15:00:00 8,3 4,5 18 10 - - SSE 0,0
24.01.2017 14:00:00 9,4 4,3 18 10 - - SE 0,0
24.01.2017 13:00:00 9,5 5,0 11 6 - - SSE 0,0
24.01.2017 12:00:00 8,5 5,0 18 10 - - S 0,0
24.01.2017 11:00:00 8,5 5,0 15 8 - - S 0,0
24.01.2017 10:00:00 6,4 4,2 11 6 - - SSW 0,0
24.01.2017 09:00:00 7,1 5,1 9 5 - - E 0,0
24.01.2017 08:00:00 6,6 4,5 8 4 - - SW 0,0
24.01.2017 07:00:00 6,4 4,1 15 8 - - S 0,0
24.01.2017 06:00:00 7,0 4,0 22 12 - - S 0,0
24.01.2017 05:00:00 6,8 2,9 22 12 - - SSE 0,0
24.01.2017 04:00:00 6,4 1,7 22 12 - - SSE 0,0
24.01.2017 03:00:00 6,0 1,9 28 15 - - SE 0,0
24.01.2017 02:00:00 5,5 2,0 29 16 - - SE 0,0
24.01.2017 01:00:00 5,0 1,4 26 14 - - SE 0,0
24.01.2017 00:00:00 4,8 1,3 21 11 - - SSE 0,0
23.01.2017 23:00:00 4,0 1,5 22 12 - - SSE 0,0
23.01.2017 22:00:00 3,8 1,4 22 12 - - SSE 0,0
23.01.2017 21:00:00 3,7 0,4 18 10 - - SE 0,0
23.01.2017 20:00:00 0,9 -1,2 2 1 - - ESE 0,0
23.01.2017 19:00:00 0,7 -1,5 2 1 - - ESE 0,0
23.01.2017 18:00:00 1,3 -1,7 4 2 - - SSW 0,0
23.01.2017 17:00:00 2,4 -1,4 13 7 - - SE 0,0
23.01.2017 16:00:00 3,1 -0,7 18 10 - - SSE 0,0
23.01.2017 15:00:00 4,5 -0,5 26 14 - - S 0,0
23.01.2017 14:00:00 6,1 0,8 18 10 - - S 0,0
23.01.2017 13:00:00 6,2 1,0 21 11 - - SE 0,0
23.01.2017 12:00:00 5,4 2,6 15 8 - - SSE 0,0
23.01.2017 11:00:00 3,4 2,1 4 2 - - S 0,0
23.01.2017 10:00:00 1,8 1,1 4 2 - - SE 0,0
23.01.2017 09:00:00 1,6 0,7 13 7 - - ESE 0,0
23.01.2017 08:00:00 2,1 1,5 8 4 - - ESE 0,0
23.01.2017 07:00:00 1,8 1,3 11 6 - - E 0,0
23.01.2017 06:00:00 1,7 1,2 11 6 - - E 0,2
23.01.2017 05:00:00 1,7 0,9 9 5 - - E 0,0
23.01.2017 04:00:00 0,6 -0,1 11 6 - - E 0,0
23.01.2017 03:00:00 1,0 0,1 5 3 - - S 0,0
23.01.2017 02:00:00 0,3 -0,1 4 2 - - SE 0,0
23.01.2017 01:00:00 -0,8 -1,5 4 2 - - SSE 0,0
23.01.2017 00:00:00 0,2 -0,5 5 3 - - ESE 0,0
22.01.2017 23:00:00 0,6 -0,4 11 6 - - ESE 0,0
22.01.2017 22:00:00 1,6 0,3 5 3 - - ESE 0,0
22.01.2017 21:00:00 1,9 0,5 8 4 - - ESE 0,0
22.01.2017 20:00:00 1,4 0,2 4 2 - - S 0,0
22.01.2017 19:00:00 1,6 0,5 4 2 - - ESE 0,0
22.01.2017 18:00:00 1,4 0,3 4 2 - - SE 0,0
22.01.2017 17:00:00 1,6 0,5 5 3 - - E 0,0
22.01.2017 16:00:00 2,0 0,7 8 4 - - E 0,0
22.01.2017 15:00:00 3,7 0,8 2 1 - - NW 0,0
22.01.2017 14:00:00 4,1 1,0 0 0 - - N 0,0
22.01.2017 13:00:00 3,7 0,9 2 1 - - NNW 0,0
22.01.2017 12:00:00 2,7 1,2 2 1 - - SSW 0,0
22.01.2017 11:00:00 -0,2 -0,8 0 0 - - N 0,0
22.01.2017 10:00:00 -2,1 -2,5 0 0 - - N 0,0
22.01.2017 09:00:00 -2,6 -2,9 4 2 - - E 0,0
22.01.2017 08:00:00 -3,7 -4,1 0 0 - - N 0,0
22.01.2017 07:00:00 -4,0 -4,5 0 0 - - N 0,0
22.01.2017 06:00:00 -4,1 -4,6 2 1 - - E 0,0
22.01.2017 05:00:00 -5,0 -5,5 2 1 - - NNW 0,0
22.01.2017 04:00:00 -5,2 -5,8 0 0 - - N 0,0
22.01.2017 03:00:00 -4,3 -4,7 5 3 - - S 0,0
22.01.2017 02:00:00 -5,2 -6,1 2 1 - - NE 0,0
22.01.2017 01:00:00 -4,0 -4,5 5 3 - - N 0,0
22.01.2017 00:00:00 -4,4 -5,5 4 2 - - NE 0,0
21.01.2017 23:00:00 -2,8 -3,4 5 3 - - ESE 0,0
21.01.2017 22:00:00 -1,5 -1,7 9 5 - - E 0,0
21.01.2017 21:00:00 -2,4 -3,4 5 3 - - N 0,0
21.01.2017 20:00:00 -2,2 -3,8 4 2 - - N 0,0
21.01.2017 19:00:00 0,6 -0,8 9 5 - - E 0,0
21.01.2017 18:00:00 0,6 -1,1 11 6 - - S 0,0
21.01.2017 17:00:00 0,7 -1,2 15 8 - - S 0,0
21.01.2017 16:00:00 3,7 -1,0 18 10 - - S 0,0
21.01.2017 15:00:00 5,5 -0,3 22 12 - - S 0,0
21.01.2017 14:00:00 5,6 2,4 8 4 - - S 0,0
21.01.2017 13:00:00 3,3 2,8 4 2 - - SSE 0,0
21.01.2017 12:00:00 0,5 0,4 9 5 - - SSW 0,0
21.01.2017 11:00:00 -0,2 -0,4 8 4 - - S 0,0
21.01.2017 10:00:00 0,6 0,5 8 4 - - S 0,0
21.01.2017 09:00:00 0,8 0,7 5 3 - - S 0,2
21.01.2017 08:00:00 0,7 0,5 4 2 - - WSW 0,0
21.01.2017 07:00:00 0,7 0,6 4 2 - - N 0,0
21.01.2017 06:00:00 0,7 0,6 4 2 - - S 0,0
21.01.2017 05:00:00 0,9 0,7 8 4 - - E 0,0
21.01.2017 04:00:00 0,9 0,7 8 4 - - ESE 0,0
21.01.2017 03:00:00 0,5 0,4 2 1 - - SE 0,0
21.01.2017 02:00:00 0,2 0,0 2 1 - - SSE 0,0
21.01.2017 01:00:00 -0,8 -1,0 2 1 - - NW 0,0
21.01.2017 00:00:00 -2,4 -2,7 2 1 - - NNW 0,0
20.01.2017 23:00:00 -2,9 -3,2 2 1 - - SSE 0,0
20.01.2017 22:00:00 -2,7 -2,9 4 2 - - SSE 0,0
20.01.2017 21:00:00 -3,3 -3,6 0 0 - - N 0,0
20.01.2017 20:00:00 -2,6 -3,1 2 1 - - ESE 0,0
20.01.2017 19:00:00 -1,4 -2,2 2 1 - - SE 0,0
20.01.2017 18:00:00 1,2 0,6 4 2 - - E 0,0
20.01.2017 17:00:00 2,1 1,1 4 2 - - ESE 0,0
20.01.2017 16:00:00 3,3 1,8 4 2 - - ESE 0,0
20.01.2017 15:00:00 6,9 3,7 2 1 - - ESE 0,0
20.01.2017 14:00:00 7,8 4,0 8 4 - - S 0,0
20.01.2017 13:00:00 7,1 3,9 4 2 - - S 0,0
20.01.2017 12:00:00 5,3 2,6 0 0 - - N 0,0
20.01.2017 11:00:00 2,4 1,6 2 1 - - NNW 0,0
20.01.2017 10:00:00 1,8 1,3 4 2 - - SSE 0,0
20.01.2017 09:00:00 1,4 0,8 8 4 - - ESE 0,0
20.01.2017 08:00:00 2,1 1,2 9 5 - - ESE 0,0
20.01.2017 07:00:00 1,8 0,6 4 2 - - N 0,0
20.01.2017 06:00:00 3,0 2,0 5 3 - - SSE 0,0
20.01.2017 05:00:00 4,7 2,4 4 2 - - SSW 0,0
20.01.2017 04:00:00 6,5 3,7 9 5 - - S 0,0
20.01.2017 03:00:00 7,1 4,2 5 3 - - SSE 0,0
20.01.2017 02:00:00 7,4 4,3 8 4 - - WSW 0,0
20.01.2017 01:00:00 7,5 4,6 15 8 - - W 0,0
20.01.2017 00:00:00 7,9 4,9 5 3 - - W 0,0
19.01.2017 23:00:00 8,2 4,9 8 4 - - W -
19.01.2017 22:00:00 8,3 5,0 9 5 - - WSW 0,0
19.01.2017 21:00:00 8,1 5,2 9 5 - - WSW 0,0
19.01.2017 20:00:00 8,2 5,4 5 3 - - SW 0,0
19.01.2017 19:00:00 8,3 5,5 13 7 - - W 0,0
19.01.2017 18:00:00 8,3 4,8 8 4 - - WSW 0,0
19.01.2017 17:00:00 8,1 5,0 9 5 - - WNW 0,0
19.01.2017 16:00:00 8,5 5,5 9 5 - - W 0,0
19.01.2017 15:00:00 8,7 5,8 11 6 - - W 0,0
19.01.2017 14:00:00 9,3 5,7 15 8 - - WSW 0,0
19.01.2017 13:00:00 9,3 6,1 21 11 - - WSW 0,0
19.01.2017 12:00:00 9,4 5,6 15 8 - - WSW 0,0
19.01.2017 11:00:00 8,9 5,1 18 10 - - W 0,0
19.01.2017 10:00:00 9,2 4,8 8 4 - - NE -
19.01.2017 09:00:00 8,7 4,8 16 9 - - W 0,0
19.01.2017 08:00:00 8,9 5,2 13 7 - - W 0,0
19.01.2017 07:00:00 8,9 5,2 18 10 55 30 W 0,0
19.01.2017 06:00:00 9,0 5,5 21 11 - - NW 0,0
19.01.2017 05:00:00 8,8 5,7 9 5 - - W 0,0
19.01.2017 04:00:00 8,6 5,2 5 3 - - ENE 0,0
19.01.2017 03:00:00 8,4 5,2 8 4 - - WNW 0,0
19.01.2017 02:00:00 8,3 5,6 8 4 - - SSE 0,0
19.01.2017 01:00:00 8,0 5,6 13 7 - - SW 0,0

tt = temperature
td = dewpoint
ff = wind speed
fx = gusts
dd = wind direction
rr = precipitation

Next stations